sensor_id;sensor_type;location;lat;lon;timestamp;pressure;altitude;pressure_sealevel;temperature;humidity
34979;BME280;21185;50.978;13.720;2023-07-24T00:04:27;97574.97;;;23.39;37.99
34979;BME280;21185;50.978;13.720;2023-07-24T00:09:28;97563.06;;;23.36;38.08
34979;BME280;21185;50.978;13.720;2023-07-24T00:14:30;97557.75;;;23.31;38.12
34979;BME280;21185;50.978;13.720;2023-07-24T00:19:32;97559.06;;;23.29;38.39
34979;BME280;21185;50.978;13.720;2023-07-24T00:24:34;97552.44;;;23.26;38.69
34979;BME280;21185;50.978;13.720;2023-07-24T00:29:35;97543.97;;;23.24;38.44
34979;BME280;21185;50.978;13.720;2023-07-24T00:34:38;97528.34;;;23.22;38.77
34979;BME280;21185;50.978;13.720;2023-07-24T00:39:40;97534.69;;;23.21;38.69
34979;BME280;21185;50.978;13.720;2023-07-24T00:44:42;97529.41;;;23.21;38.92
34979;BME280;21185;50.978;13.720;2023-07-24T00:49:44;97529.16;;;23.23;39.32
34979;BME280;21185;50.978;13.720;2023-07-24T00:54:46;97540.00;;;23.21;39.25
34979;BME280;21185;50.978;13.720;2023-07-24T00:59:48;97539.19;;;23.21;39.16
34979;BME280;21185;50.978;13.720;2023-07-24T01:04:51;97529.66;;;23.20;39.26
34979;BME280;21185;50.978;13.720;2023-07-24T01:09:54;97525.69;;;23.17;39.41
34979;BME280;21185;50.978;13.720;2023-07-24T01:14:58;97516.41;;;23.15;39.37
34979;BME280;21185;50.978;13.720;2023-07-24T01:20:05;97521.97;;;23.13;39.56
34979;BME280;21185;50.978;13.720;2023-07-24T01:30:17;97520.38;;;23.12;39.62
34979;BME280;21185;50.978;13.720;2023-07-24T01:35:21;97509.25;;;23.10;39.82
34979;BME280;21185;50.978;13.720;2023-07-24T01:40:23;97510.56;;;23.08;39.96
34979;BME280;21185;50.978;13.720;2023-07-24T01:45:25;97512.69;;;23.06;39.66
34979;BME280;21185;50.978;13.720;2023-07-24T01:50:27;97509.50;;;23.04;39.92
34979;BME280;21185;50.978;13.720;2023-07-24T01:55:29;97492.31;;;23.01;39.90
34979;BME280;21185;50.978;13.720;2023-07-24T02:00:30;97492.56;;;23.00;39.85
34979;BME280;21185;50.978;13.720;2023-07-24T02:05:32;97493.09;;;22.97;40.13
34979;BME280;21185;50.978;13.720;2023-07-24T02:10:36;97491.22;;;22.97;40.14
34979;BME280;21185;50.978;13.720;2023-07-24T02:15:38;97481.97;;;22.94;40.34
34979;BME280;21185;50.978;13.720;2023-07-24T02:20:41;97485.94;;;22.92;40.49
34979;BME280;21185;50.978;13.720;2023-07-24T02:25:43;97486.19;;;22.90;40.81
34979;BME280;21185;50.978;13.720;2023-07-24T02:30:46;97491.75;;;22.89;40.93
34979;BME280;21185;50.978;13.720;2023-07-24T02:35:48;97490.94;;;22.88;40.78
34979;BME280;21185;50.978;13.720;2023-07-24T02:40:51;97481.16;;;22.89;41.04
34979;BME280;21185;50.978;13.720;2023-07-24T02:45:52;97477.47;;;22.90;40.94
34979;BME280;21185;50.978;13.720;2023-07-24T02:50:57;97469.25;;;22.91;41.50
34979;BME280;21185;50.978;13.720;2023-07-24T02:56:00;97467.16;;;22.93;41.57
34979;BME280;21185;50.978;13.720;2023-07-24T03:01:03;97469.53;;;22.95;41.68
34979;BME280;21185;50.978;13.720;2023-07-24T03:06:06;97470.34;;;22.96;41.73
34979;BME280;21185;50.978;13.720;2023-07-24T03:11:08;97475.38;;;22.97;41.52
34979;BME280;21185;50.978;13.720;2023-07-24T03:16:10;97480.91;;;22.96;41.90
34979;BME280;21185;50.978;13.720;2023-07-24T03:21:12;97472.97;;;22.96;41.88
34979;BME280;21185;50.978;13.720;2023-07-24T03:26:15;97467.44;;;22.97;41.88
34979;BME280;21185;50.978;13.720;2023-07-24T03:31:17;97464.25;;;23.00;41.90
34979;BME280;21185;50.978;13.720;2023-07-24T03:36:20;97449.97;;;23.01;41.85
34979;BME280;21185;50.978;13.720;2023-07-24T03:41:26;97444.69;;;23.01;42.06
34979;BME280;21185;50.978;13.720;2023-07-24T03:46:29;97448.91;;;23.02;41.82
34979;BME280;21185;50.978;13.720;2023-07-24T03:51:31;97449.44;;;23.04;41.89
34979;BME280;21185;50.978;13.720;2023-07-24T03:56:35;97437.81;;;23.05;41.89
34979;BME280;21185;50.978;13.720;2023-07-24T04:01:36;97439.13;;;23.08;41.97
34979;BME280;21185;50.978;13.720;2023-07-24T04:06:38;97429.88;;;23.10;41.79
34979;BME280;21185;50.978;13.720;2023-07-24T04:11:43;97422.72;;;23.11;41.79
34979;BME280;21185;50.978;13.720;2023-07-24T04:16:45;97421.41;;;23.13;41.83
34979;BME280;21185;50.978;13.720;2023-07-24T04:21:47;97429.34;;;23.13;42.07
34979;BME280;21185;50.978;13.720;2023-07-24T04:26:49;97415.84;;;23.15;42.08
34979;BME280;21185;50.978;13.720;2023-07-24T04:31:50;97409.50;;;23.16;42.09
34979;BME280;21185;50.978;13.720;2023-07-24T04:36:52;97408.44;;;23.17;41.80
34979;BME280;21185;50.978;13.720;2023-07-24T04:41:53;97408.97;;;23.19;41.78
34979;BME280;21185;50.978;13.720;2023-07-24T04:46:58;97414.00;;;23.20;42.14
34979;BME280;21185;50.978;13.720;2023-07-24T04:52:00;97408.97;;;23.24;41.98
34979;BME280;21185;50.978;13.720;2023-07-24T04:57:02;97416.41;;;23.27;42.00
34979;BME280;21185;50.978;13.720;2023-07-24T05:02:04;97405.53;;;23.34;42.30
34979;BME280;21185;50.978;13.720;2023-07-24T05:07:06;97399.47;;;23.43;42.15
34979;BME280;21185;50.978;13.720;2023-07-24T05:12:08;97395.22;;;23.47;42.19
34979;BME280;21185;50.978;13.720;2023-07-24T05:17:09;97395.75;;;23.49;42.18
34979;BME280;21185;50.978;13.720;2023-07-24T05:22:11;97384.38;;;23.54;42.03
34979;BME280;21185;50.978;13.720;2023-07-24T05:27:13;97385.16;;;23.60;42.36
34979;BME280;21185;50.978;13.720;2023-07-24T05:32:17;97389.66;;;23.64;42.15
34979;BME280;21185;50.978;13.720;2023-07-24T05:37:19;97398.13;;;23.66;42.05
34979;BME280;21185;50.978;13.720;2023-07-24T05:42:21;97388.06;;;23.68;42.22
34979;BME280;21185;50.978;13.720;2023-07-24T05:47:22;97390.97;;;23.72;42.03
34979;BME280;21185;50.978;13.720;2023-07-24T05:52:24;97390.44;;;23.75;41.93
34979;BME280;21185;50.978;13.720;2023-07-24T05:57:26;97392.03;;;23.81;42.07
34979;BME280;21185;50.978;13.720;2023-07-24T06:02:28;97394.91;;;23.89;42.23
34979;BME280;21185;50.978;13.720;2023-07-24T06:07:30;97394.38;;;23.98;42.23
34979;BME280;21185;50.978;13.720;2023-07-24T06:12:31;97380.56;;;24.01;42.02
34979;BME280;21185;50.978;13.720;2023-07-24T06:17:33;97381.59;;;24.10;42.07
34979;BME280;21185;50.978;13.720;2023-07-24T06:22:36;97380.00;;;24.14;42.03
34979;BME280;21185;50.978;13.720;2023-07-24T06:27:40;97379.72;;;24.15;42.18
34979;BME280;21185;50.978;13.720;2023-07-24T06:32:42;97380.00;;;24.14;42.16
34979;BME280;21185;50.978;13.720;2023-07-24T06:37:45;97382.13;;;24.12;42.02
34979;BME280;21185;50.978;13.720;2023-07-24T06:42:47;97395.09;;;24.13;42.00
34979;BME280;21185;50.978;13.720;2023-07-24T06:47:48;97388.47;;;24.16;42.20
34979;BME280;21185;50.978;13.720;2023-07-24T06:52:50;97385.81;;;24.21;42.29
34979;BME280;21185;50.978;13.720;2023-07-24T06:57:53;97377.56;;;24.33;42.04
34979;BME280;21185;50.978;13.720;2023-07-24T07:02:55;97381.25;;;24.42;41.96
34979;BME280;21185;50.978;13.720;2023-07-24T07:07:57;97367.09;;;24.57;41.79
34979;BME280;21185;50.978;13.720;2023-07-24T07:12:58;97374.47;;;24.70;41.67
34979;BME280;21185;50.978;13.720;2023-07-24T07:18:00;97379.19;;;24.78;41.55
34979;BME280;21185;50.978;13.720;2023-07-24T07:23:02;97372.22;;;24.87;41.64
34979;BME280;21185;50.978;13.720;2023-07-24T07:28:04;97369.53;;;24.92;41.70
34979;BME280;21185;50.978;13.720;2023-07-24T07:33:06;97373.53;;;24.90;41.59
34979;BME280;21185;50.978;13.720;2023-07-24T07:38:08;97367.97;;;24.91;41.62
34979;BME280;21185;50.978;13.720;2023-07-24T07:43:09;97350.97;;;24.97;41.79
34979;BME280;21185;50.978;13.720;2023-07-24T07:48:11;97344.03;;;25.01;41.75
34979;BME280;21185;50.978;13.720;2023-07-24T07:53:13;97320.63;;;25.08;41.57
34979;BME280;21185;50.978;13.720;2023-07-24T07:58:14;97326.38;;;25.15;41.65
34979;BME280;21185;50.978;13.720;2023-07-24T08:03:16;97315.22;;;25.18;41.49
34979;BME280;21185;50.978;13.720;2023-07-24T08:08:18;97319.41;;;25.25;41.40
34979;BME280;21185;50.978;13.720;2023-07-24T08:13:20;97311.84;;;25.37;41.40
34979;BME280;21185;50.978;13.720;2023-07-24T08:18:22;97302.53;;;25.68;41.31
34979;BME280;21185;50.978;13.720;2023-07-24T08:23:23;97294.19;;;25.99;40.97
34979;BME280;21185;50.978;13.720;2023-07-24T08:28:25;97290.09;;;26.25;40.72
34979;BME280;21185;50.978;13.720;2023-07-24T08:33:27;97280.44;;;26.53;40.42
34979;BME280;21185;50.978;13.720;2023-07-24T08:38:29;97274.28;;;26.71;40.69
34979;BME280;21185;50.978;13.720;2023-07-24T08:43:31;97248.88;;;26.98;40.26
34979;BME280;21185;50.978;13.720;2023-07-24T08:48:40;97245.66;;;27.15;40.44
34979;BME280;21185;50.978;13.720;2023-07-24T08:53:43;97242.81;;;27.25;40.59
34979;BME280;21185;50.978;13.720;2023-07-24T08:58:45;97242.53;;;27.40;40.40
34979;BME280;21185;50.978;13.720;2023-07-24T09:03:46;97243.41;;;27.35;40.85
34979;BME280;21185;50.978;13.720;2023-07-24T09:08:53;97247.16;;;27.34;40.89
34979;BME280;21185;50.978;13.720;2023-07-24T09:13:55;97244.78;;;27.47;40.62
34979;BME280;21185;50.978;13.720;2023-07-24T09:18:56;97265.50;;;27.50;40.80
34979;BME280;21185;50.978;13.720;2023-07-24T09:24:12;97265.00;;;27.34;40.78
34979;BME280;21185;50.978;13.720;2023-07-24T09:29:14;97257.78;;;27.07;40.65
34979;BME280;21185;50.978;13.720;2023-07-24T09:34:16;97270.81;;;26.90;40.79
34979;BME280;21185;50.978;13.720;2023-07-24T09:39:25;97264.34;;;26.77;40.72
34979;BME280;21185;50.978;13.720;2023-07-24T09:44:30;97265.53;;;26.71;40.42
34979;BME280;21185;50.978;13.720;2023-07-24T09:49:32;97266.69;;;26.65;40.08
34979;BME280;21185;50.978;13.720;2023-07-24T09:54:37;97260.56;;;26.64;40.24
34979;BME280;21185;50.978;13.720;2023-07-24T09:59:42;97265.69;;;26.61;39.90
34979;BME280;21185;50.978;13.720;2023-07-24T10:04:45;97256.31;;;26.63;39.63
34979;BME280;21185;50.978;13.720;2023-07-24T10:09:49;97250.72;;;26.65;39.44
34979;BME280;21185;50.978;13.720;2023-07-24T10:14:51;97258.91;;;26.68;39.58
34979;BME280;21185;50.978;13.720;2023-07-24T10:20:01;97249.25;;;26.72;39.58
34979;BME280;21185;50.978;13.720;2023-07-24T10:25:04;97252.22;;;26.71;39.43
34979;BME280;21185;50.978;13.720;2023-07-24T10:30:07;97267.75;;;26.64;39.64
34979;BME280;21185;50.978;13.720;2023-07-24T10:35:35;97271.81;;;26.42;40.58
34979;BME280;21185;50.978;13.720;2023-07-24T10:40:39;97279.09;;;26.13;42.35
34979;BME280;21185;50.978;13.720;2023-07-24T10:50:44;97264.81;;;25.90;43.35
34979;BME280;21185;50.978;13.720;2023-07-24T10:55:46;97253.09;;;25.91;43.46
34979;BME280;21185;50.978;13.720;2023-07-24T11:00:55;97264.53;;;25.92;43.52
34979;BME280;21185;50.978;13.720;2023-07-24T11:05:58;97264.97;;;25.99;43.54
34979;BME280;21185;50.978;13.720;2023-07-24T11:11:00;97242.97;;;26.12;43.42
34979;BME280;21185;50.978;13.720;2023-07-24T11:16:04;97234.47;;;26.29;43.57
34979;BME280;21185;50.978;13.720;2023-07-24T11:21:07;97220.97;;;26.44;43.63
34979;BME280;21185;50.978;13.720;2023-07-24T11:26:10;97201.19;;;26.50;43.65
34979;BME280;21185;50.978;13.720;2023-07-24T11:31:12;97191.19;;;26.61;43.62
34979;BME280;21185;50.978;13.720;2023-07-24T11:36:14;97179.38;;;26.67;43.15
34979;BME280;21185;50.978;13.720;2023-07-24T11:41:19;97180.00;;;26.77;43.05
34979;BME280;21185;50.978;13.720;2023-07-24T11:46:22;97166.00;;;26.86;43.22
34979;BME280;21185;50.978;13.720;2023-07-24T11:51:25;97156.16;;;26.86;43.27
34979;BME280;21185;50.978;13.720;2023-07-24T11:56:31;97158.22;;;26.89;43.34
34979;BME280;21185;50.978;13.720;2023-07-24T12:01:32;97166.78;;;26.86;43.35
34979;BME280;21185;50.978;13.720;2023-07-24T12:06:35;97163.22;;;26.77;43.65
34979;BME280;21185;50.978;13.720;2023-07-24T12:11:46;97173.47;;;26.70;43.67
34979;BME280;21185;50.978;13.720;2023-07-24T12:16:49;97166.44;;;26.60;44.00
34979;BME280;21185;50.978;13.720;2023-07-24T12:21:51;97165.84;;;26.50;44.36
34979;BME280;21185;50.978;13.720;2023-07-24T12:26:53;97167.28;;;26.42;44.79
34979;BME280;21185;50.978;13.720;2023-07-24T12:31:55;97179.44;;;26.29;44.92
34979;BME280;21185;50.978;13.720;2023-07-24T12:36:56;97183.31;;;26.18;45.35
34979;BME280;21185;50.978;13.720;2023-07-24T12:41:58;97179.22;;;26.07;45.65
34979;BME280;21185;50.978;13.720;2023-07-24T12:47:00;97202.31;;;25.93;46.20
34979;BME280;21185;50.978;13.720;2023-07-24T12:52:02;97208.41;;;25.74;46.68
34979;BME280;21185;50.978;13.720;2023-07-24T12:57:04;97218.06;;;25.41;47.40
34979;BME280;21185;50.978;13.720;2023-07-24T13:02:06;97213.75;;;24.98;49.46
34979;BME280;21185;50.978;13.720;2023-07-24T13:07:08;97215.09;;;24.61;50.68
34979;BME280;21185;50.978;13.720;2023-07-24T13:12:09;97217.44;;;24.34;52.50
34979;BME280;21185;50.978;13.720;2023-07-24T13:17:12;97187.28;;;24.19;53.24
34979;BME280;21185;50.978;13.720;2023-07-24T13:22:13;97169.44;;;24.35;53.05
34979;BME280;21185;50.978;13.720;2023-07-24T13:27:15;97168.19;;;24.57;53.49
34979;BME280;21185;50.978;13.720;2023-07-24T13:32:17;97156.84;;;24.80;53.49
34979;BME280;21185;50.978;13.720;2023-07-24T13:37:19;97149.81;;;24.94;53.69
34979;BME280;21185;50.978;13.720;2023-07-24T13:42:21;97135.59;;;25.09;53.66
34979;BME280;21185;50.978;13.720;2023-07-24T13:47:22;97114.91;;;25.30;53.46
34979;BME280;21185;50.978;13.720;2023-07-24T13:52:24;97099.22;;;25.52;53.29
34979;BME280;21185;50.978;13.720;2023-07-24T13:57:26;97076.91;;;25.53;52.97
34979;BME280;21185;50.978;13.720;2023-07-24T14:07:46;97046.75;;;25.63;52.29
34979;BME280;21185;50.978;13.720;2023-07-24T14:12:47;97045.88;;;25.86;52.11
34979;BME280;21185;50.978;13.720;2023-07-24T14:17:49;97038.91;;;26.04;51.73
34979;BME280;21185;50.978;13.720;2023-07-24T14:22:51;97029.09;;;26.18;51.79
34979;BME280;21185;50.978;13.720;2023-07-24T14:27:53;97022.31;;;26.26;51.62
34979;BME280;21185;50.978;13.720;2023-07-24T14:32:55;97017.50;;;26.28;51.71
34979;BME280;21185;50.978;13.720;2023-07-24T14:37:57;97020.06;;;26.19;51.05
34979;BME280;21185;50.978;13.720;2023-07-24T14:42:59;96999.56;;;26.06;50.77
34979;BME280;21185;50.978;13.720;2023-07-24T14:48:01;96993.06;;;25.98;50.36
34979;BME280;21185;50.978;13.720;2023-07-24T14:53:03;96962.44;;;26.01;49.95
34979;BME280;21185;50.978;13.720;2023-07-24T14:58:04;96945.81;;;26.09;50.18
34979;BME280;21185;50.978;13.720;2023-07-24T15:03:06;96945.59;;;26.19;49.96
34979;BME280;21185;50.978;13.720;2023-07-24T15:08:08;96953.50;;;26.24;50.06
34979;BME280;21185;50.978;13.720;2023-07-24T15:13:10;96961.88;;;26.31;50.40
34979;BME280;21185;50.978;13.720;2023-07-24T15:18:12;96952.41;;;26.25;50.19
34979;BME280;21185;50.978;13.720;2023-07-24T15:23:14;96955.25;;;26.15;50.27
34979;BME280;21185;50.978;13.720;2023-07-24T15:28:16;96933.78;;;26.11;50.39
34979;BME280;21185;50.978;13.720;2023-07-24T15:33:18;96956.63;;;26.12;50.57
34979;BME280;21185;50.978;13.720;2023-07-24T15:38:21;96946.69;;;26.18;50.13
34979;BME280;21185;50.978;13.720;2023-07-24T15:43:23;96939.59;;;26.27;50.33
34979;BME280;21185;50.978;13.720;2023-07-24T15:48:26;96935.38;;;26.26;50.45
34979;BME280;21185;50.978;13.720;2023-07-24T15:53:28;96933.13;;;26.33;50.64
34979;BME280;21185;50.978;13.720;2023-07-24T15:58:30;96916.97;;;26.43;50.50
34979;BME280;21185;50.978;13.720;2023-07-24T16:03:32;96904.28;;;26.40;50.69
34979;BME280;21185;50.978;13.720;2023-07-24T16:08:34;96902.22;;;26.37;50.53
34979;BME280;21185;50.978;13.720;2023-07-24T16:13:38;96882.03;;;26.36;50.90
34979;BME280;21185;50.978;13.720;2023-07-24T16:18:40;96891.09;;;26.35;50.53
34979;BME280;21185;50.978;13.720;2023-07-24T16:23:42;96883.59;;;26.37;50.02
34979;BME280;21185;50.978;13.720;2023-07-24T16:28:44;96884.28;;;26.43;48.18
34979;BME280;21185;50.978;13.720;2023-07-24T16:33:46;96895.41;;;26.45;46.80
34979;BME280;21185;50.978;13.720;2023-07-24T16:38:50;96902.50;;;26.50;46.67
34979;BME280;21185;50.978;13.720;2023-07-24T16:43:52;96897.16;;;26.50;46.43
34979;BME280;21185;50.978;13.720;2023-07-24T16:48:54;96899.84;;;26.50;46.61
34979;BME280;21185;50.978;13.720;2023-07-24T16:53:56;96894.81;;;26.48;46.57
34979;BME280;21185;50.978;13.720;2023-07-24T16:58:58;96885.06;;;26.43;46.07
34979;BME280;21185;50.978;13.720;2023-07-24T17:04:00;96889.41;;;26.39;45.54
34979;BME280;21185;50.978;13.720;2023-07-24T17:09:02;96892.66;;;26.36;45.29
34979;BME280;21185;50.978;13.720;2023-07-24T17:14:04;96887.94;;;26.33;44.74
34979;BME280;21185;50.978;13.720;2023-07-24T17:19:06;96870.41;;;26.32;44.63
34979;BME280;21185;50.978;13.720;2023-07-24T17:24:08;96872.53;;;26.30;44.97
34979;BME280;21185;50.978;13.720;2023-07-24T17:29:09;96872.53;;;26.30;45.30
34979;BME280;21185;50.978;13.720;2023-07-24T17:34:11;96876.88;;;26.26;45.56
34979;BME280;21185;50.978;13.720;2023-07-24T17:39:13;96864.28;;;26.18;45.79
34979;BME280;21185;50.978;13.720;2023-07-24T17:44:15;96862.00;;;26.11;46.13
34979;BME280;21185;50.978;13.720;2023-07-24T17:49:17;96867.72;;;26.05;46.04
34979;BME280;21185;50.978;13.720;2023-07-24T17:54:19;96857.22;;;26.00;46.00
34979;BME280;21185;50.978;13.720;2023-07-24T17:59:21;96849.34;;;25.95;46.05
34979;BME280;21185;50.978;13.720;2023-07-24T18:04:23;96855.06;;;25.88;46.25
34979;BME280;21185;50.978;13.720;2023-07-24T18:09:25;96857.31;;;25.81;46.46
34979;BME280;21185;50.978;13.720;2023-07-24T18:14:27;96864.09;;;25.73;46.36
34979;BME280;21185;50.978;13.720;2023-07-24T18:19:29;96882.28;;;25.66;46.43
34979;BME280;21185;50.978;13.720;2023-07-24T18:24:31;96870.16;;;25.60;46.56
34979;BME280;21185;50.978;13.720;2023-07-24T18:29:32;96860.69;;;25.54;46.69
34979;BME280;21185;50.978;13.720;2023-07-24T18:34:35;96879.38;;;25.49;46.70
34979;BME280;21185;50.978;13.720;2023-07-24T18:39:38;96873.06;;;25.45;46.88
34979;BME280;21185;50.978;13.720;2023-07-24T18:44:40;96882.41;;;25.42;46.82
34979;BME280;21185;50.978;13.720;2023-07-24T18:49:42;96874.22;;;25.39;47.02
34979;BME280;21185;50.978;13.720;2023-07-24T18:54:45;96870.56;;;25.35;47.13
34979;BME280;21185;50.978;13.720;2023-07-24T18:59:47;96866.94;;;25.31;47.31
34979;BME280;21185;50.978;13.720;2023-07-24T19:04:49;96885.88;;;25.24;47.47
34979;BME280;21185;50.978;13.720;2023-07-24T19:09:51;96902.69;;;25.20;47.65
34979;BME280;21185;50.978;13.720;2023-07-24T19:14:53;96959.06;;;25.11;47.87
34979;BME280;21185;50.978;13.720;2023-07-24T19:19:55;96981.13;;;24.88;47.65
34979;BME280;21185;50.978;13.720;2023-07-24T19:24:56;96982.00;;;24.60;47.79
34979;BME280;21185;50.978;13.720;2023-07-24T19:29:58;96985.44;;;24.36;48.08
34979;BME280;21185;50.978;13.720;2023-07-24T19:35:04;96990.41;;;24.14;48.25
34979;BME280;21185;50.978;13.720;2023-07-24T19:40:06;97014.44;;;23.94;48.65
34979;BME280;21185;50.978;13.720;2023-07-24T19:45:08;97029.16;;;23.76;49.31
34979;BME280;21185;50.978;13.720;2023-07-24T19:50:09;97020.53;;;23.60;49.60
34979;BME280;21185;50.978;13.720;2023-07-24T19:55:11;97021.41;;;23.45;50.24
34979;BME280;21185;50.978;13.720;2023-07-24T20:00:13;97023.59;;;23.33;50.45
34979;BME280;21185;50.978;13.720;2023-07-24T20:05:15;97038.19;;;23.25;50.47
34979;BME280;21185;50.978;13.720;2023-07-24T20:10:17;97024.72;;;23.22;50.42
34979;BME280;21185;50.978;13.720;2023-07-24T20:15:19;97020.25;;;23.17;50.47
34979;BME280;21185;50.978;13.720;2023-07-24T20:20:20;97033.22;;;23.14;50.66
34979;BME280;21185;50.978;13.720;2023-07-24T20:25:22;97034.56;;;23.11;50.28
34979;BME280;21185;50.978;13.720;2023-07-24T20:30:24;97024.00;;;23.06;50.54
34979;BME280;21185;50.978;13.720;2023-07-24T20:35:30;97043.59;;;23.00;50.71
34979;BME280;21185;50.978;13.720;2023-07-24T20:40:32;97062.16;;;22.95;50.58
34979;BME280;21185;50.978;13.720;2023-07-24T20:45:34;97080.69;;;22.90;51.02
34979;BME280;21185;50.978;13.720;2023-07-24T20:50:37;97065.91;;;22.84;51.43
34979;BME280;21185;50.978;13.720;2023-07-24T20:55:39;97094.47;;;22.67;53.21
34979;BME280;21185;50.978;13.720;2023-07-24T21:00:41;97100.84;;;22.40;55.58
34979;BME280;21185;50.978;13.720;2023-07-24T21:05:42;97097.44;;;22.19;56.33
34979;BME280;21185;50.978;13.720;2023-07-24T21:10:44;97111.94;;;22.02;57.40
34979;BME280;21185;50.978;13.720;2023-07-24T21:15:46;97127.75;;;21.81;58.71
34979;BME280;21185;50.978;13.720;2023-07-24T21:20:48;97121.13;;;21.63;59.42
34979;BME280;21185;50.978;13.720;2023-07-24T21:25:53;97094.97;;;21.52;59.78
34979;BME280;21185;50.978;13.720;2023-07-24T21:30:55;97076.19;;;21.43;60.38
34979;BME280;21185;50.978;13.720;2023-07-24T21:36:00;97075.41;;;21.38;60.52
34979;BME280;21185;50.978;13.720;2023-07-24T21:41:02;97102.84;;;21.37;60.10
34979;BME280;21185;50.978;13.720;2023-07-24T21:46:04;97098.06;;;21.33;60.27
34979;BME280;21185;50.978;13.720;2023-07-24T21:51:09;97095.16;;;21.30;60.55
34979;BME280;21185;50.978;13.720;2023-07-24T21:56:11;97116.53;;;21.28;60.38
34979;BME280;21185;50.978;13.720;2023-07-24T22:01:14;97109.13;;;21.25;60.66
34979;BME280;21185;50.978;13.720;2023-07-24T22:06:18;97102.25;;;21.24;60.57
34979;BME280;21185;50.978;13.720;2023-07-24T22:11:20;97101.16;;;21.20;60.53
34979;BME280;21185;50.978;13.720;2023-07-24T22:16:21;97098.50;;;21.15;60.85
34979;BME280;21185;50.978;13.720;2023-07-24T22:21:23;97090.56;;;21.10;60.90
34979;BME280;21185;50.978;13.720;2023-07-24T22:26:25;97090.28;;;21.07;61.21
34979;BME280;21185;50.978;13.720;2023-07-24T22:31:27;97089.22;;;21.02;61.28
34979;BME280;21185;50.978;13.720;2023-07-24T22:36:29;97081.28;;;20.97;61.28
34979;BME280;21185;50.978;13.720;2023-07-24T22:41:31;97072.06;;;20.95;61.49
34979;BME280;21185;50.978;13.720;2023-07-24T22:46:35;97075.19;;;20.92;61.75
34979;BME280;21185;50.978;13.720;2023-07-24T22:51:37;97078.88;;;20.91;61.40
34979;BME280;21185;50.978;13.720;2023-07-24T22:56:39;97085.22;;;20.90;61.11
34979;BME280;21185;50.978;13.720;2023-07-24T23:01:41;97092.84;;;20.86;61.44
34979;BME280;21185;50.978;13.720;2023-07-24T23:06:43;97115.50;;;20.82;61.89
34979;BME280;21185;50.978;13.720;2023-07-24T23:11:45;97122.34;;;20.78;61.87
34979;BME280;21185;50.978;13.720;2023-07-24T23:16:47;97119.44;;;20.75;62.26
34979;BME280;21185;50.978;13.720;2023-07-24T23:21:48;97113.63;;;20.73;62.30
34979;BME280;21185;50.978;13.720;2023-07-24T23:26:50;97125.22;;;20.72;62.07
34979;BME280;21185;50.978;13.720;2023-07-24T23:31:55;97133.63;;;20.68;62.53
34979;BME280;21185;50.978;13.720;2023-07-24T23:36:57;97136.28;;;20.68;62.58
34979;BME280;21185;50.978;13.720;2023-07-24T23:42:01;97149.44;;;20.68;62.11
34979;BME280;21185;50.978;13.720;2023-07-24T23:47:03;97149.44;;;20.68;62.34
34979;BME280;21185;50.978;13.720;2023-07-24T23:52:05;97139.97;;;20.67;63.04
34979;BME280;21185;50.978;13.720;2023-07-24T23:57:10;97154.19;;;20.66;63.13
